^^
Meteo Knjazevac Station Historical Data
Daily Summary for August 5, 2021 Units:  Metric    English   Both
Daily Weekly Monthly Yearly Custom
  High: Low: Average:
Temperature: 29.9 °C 14.9 °C 21.8 °C
Dew Point: 21.5 °C 13.2 °C 16.7 °C
Humidity: 93% 52% 75%
Wind Speed: 12.9km/h 0km/h 3.4km/h
Wind Gust: 20.9km/h - -
Wind- - SW
Pressure: 1014.1 hPa 1011.1 hPa -
Precipitation: 0 mm    
Historical Graphs
 
 
Tabular Data for August 5, 2021
Time Temperature Dew Point Pressure Wind Wind Speed Wind Gust Humidity Rainfall Rate (Hourly) solar Conditions
00:00 16.5 °C 13.9 °C 1014.1 hPa WSW 1.6 km/h 8 km/h 85% 0 mm 0 W/m2
00:10 16.3 °C 13.8 °C 1014.1 hPa WSW 3.2 km/h 8 km/h 85% 0 mm 0 W/m2
00:20 16.1 °C 13.6 °C 1014.1 hPa West 3.2 km/h 8 km/h 85% 0 mm 0 W/m2
00:30 16 °C 13.7 °C 1014.1 hPa WSW 3.2 km/h 8 km/h 86% 0 mm 0 W/m2
00:40 15.7 °C 13.4 °C 1014.1 hPa WSW 3.2 km/h 8 km/h 86% 0 mm 0 W/m2
00:50 15.6 °C 13.3 °C 1013.8 hPa West 3.2 km/h 8 km/h 86% 0 mm 0 W/m2
01:00 15.6 °C 13.3 °C 1013.8 hPa Calm   8 km/h 86% 0 mm 0 W/m2
01:10 15.5 °C 13.5 °C 1013.8 hPa WSW 3.2 km/h 4.8 km/h 88% 0 mm 0 W/m2
01:20 15.5 °C 13.5 °C 1013.8 hPa WNW 1.6 km/h 6.4 km/h 88% 0 mm 0 W/m2
01:30 15.6 °C 13.6 °C 1013.4 hPa WNW 1.6 km/h 4.8 km/h 88% 0 mm 0 W/m2
01:40 15.5 °C 13.5 °C 1013.4 hPa Calm   3.2 km/h 88% 0 mm 0 W/m2
01:50 15.3 °C 13.5 °C 1013.4 hPa West 1.6 km/h 3.2 km/h 89% 0 mm 0 W/m2
02:00 15.2 °C 13.4 °C 1013.4 hPa WNW 1.6 km/h 3.2 km/h 89% 0 mm 0 W/m2
02:10 15 °C 13.2 °C 1013.4 hPa West 3.2 km/h 4.8 km/h 89% 0 mm 0 W/m2
02:20 14.9 °C 13.3 °C 1013.4 hPa WNW 3.2 km/h 4.8 km/h 90% 0 mm 0 W/m2
02:30 15 °C 13.4 °C 1013.4 hPa West 3.2 km/h 8 km/h 90% 0 mm 0 W/m2
02:40 15.1 °C 13.3 °C 1013.4 hPa West 3.2 km/h 4.8 km/h 89% 0 mm 0 W/m2
02:50 15.2 °C 13.4 °C 1013.1 hPa West 3.2 km/h 4.8 km/h 89% 0 mm 0 W/m2
03:00 15.2 °C 13.4 °C 1013.1 hPa WSW 1.6 km/h 4.8 km/h 89% 0 mm 0 W/m2
03:10 15.2 °C 13.4 °C 1013.1 hPa WNW 1.6 km/h 3.2 km/h 89% 0 mm 0 W/m2
03:20 15.3 °C 13.5 °C 1013.1 hPa Calm   3.2 km/h 89% 0 mm 0 W/m2
03:30 15.4 °C 13.6 °C 1012.8 hPa Calm   1.6 km/h 89% 0 mm 0 W/m2
03:40 15.4 °C 13.8 °C 1012.8 hPa Calm   1.6 km/h 90% 0 mm 0 W/m2
03:50 15.3 °C 13.7 °C 1012.8 hPa West 1.6 km/h 3.2 km/h 90% 0 mm 0 W/m2
04:00 15.3 °C 13.7 °C 1012.8 hPa WNW 1.6 km/h 6.4 km/h 90% 0 mm 0 W/m2
04:10 15.3 °C 13.7 °C 1013.1 hPa Calm   4.8 km/h 90% 0 mm 0 W/m2
04:20 15.3 °C 13.8 °C 1012.8 hPa Calm   3.2 km/h 91% 0 mm 0 W/m2
04:30 15.3 °C 13.8 °C 1012.8 hPa Calm   1.6 km/h 91% 0 mm 0 W/m2
04:40 15.4 °C 13.9 °C 1012.8 hPa Calm   3.2 km/h 91% 0 mm 0 W/m2
04:50 15.5 °C 14.1 °C 1013.1 hPa Calm   3.2 km/h 91% 0 mm 0 W/m2
05:00 15.5 °C 14.4 °C 1013.1 hPa WNW 1.6 km/h 3.2 km/h 93% 0 mm 1 W/m2
05:10 15.5 °C 14.4 °C 1013.1 hPa West 1.6 km/h 3.2 km/h 93% 0 mm 4 W/m2
05:20 15.6 °C 14.4 °C 1013.1 hPa Calm   3.2 km/h 93% 0 mm 8 W/m2
05:30 15.6 °C 14.4 °C 1013.1 hPa WNW 1.6 km/h 4.8 km/h 93% 0 mm 19 W/m2
05:40 15.6 °C 14.1 °C 1013.1 hPa SW 3.2 km/h 4.8 km/h 91% 0 mm 29 W/m2
05:50 15.8 °C 14.7 °C 1012.8 hPa West 3.2 km/h 8 km/h 93% 0 mm 32 W/m2
06:00 15.9 °C 14.3 °C 1013.1 hPa NW 1.6 km/h 6.4 km/h 90% 0 mm 41 W/m2
06:10 16.1 °C 14.6 °C 1012.8 hPa NW 1.6 km/h 3.2 km/h 91% 0 mm 42 W/m2
06:20 16.2 °C 15.1 °C 1012.8 hPa WSW 1.6 km/h 4.8 km/h 93% 0 mm 54 W/m2
06:30 16.3 °C 15.2 °C 1012.8 hPa WSW 3.2 km/h 4.8 km/h 93% 0 mm 56 W/m2
06:40 16.4 °C 14.9 °C 1012.8 hPa SW 3.2 km/h 4.8 km/h 91% 0 mm 52 W/m2
06:50 16.5 °C 15.4 °C 1012.8 hPa West 1.6 km/h 3.2 km/h 93% 0 mm 120 W/m2
07:00 16.7 °C 15.2 °C 1012.8 hPa NNW 1.6 km/h 3.2 km/h 91% 0 mm 280 W/m2
07:10 17 °C 15.3 °C 1012.8 hPa West 1.6 km/h 4.8 km/h 90% 0 mm 323 W/m2
07:20 17.3 °C 15.6 °C 1012.8 hPa NW 1.6 km/h 3.2 km/h 90% 0 mm 327 W/m2
07:30 17.6 °C 15.8 °C 1012.8 hPa WSW 3.2 km/h 6.4 km/h 89% 0 mm 326 W/m2
07:40 17.8 °C 15.8 °C 1012.8 hPa West 1.6 km/h 4.8 km/h 88% 0 mm 179 W/m2
07:50 18.1 °C 15.6 °C 1012.8 hPa Calm   4.8 km/h 85% 0 mm 427 W/m2
08:00 18.5 °C 15.7 °C 1012.8 hPa ENE 1.6 km/h 3.2 km/h 84% 0 mm 447 W/m2
08:10 18.9 °C 16.3 °C 1012.8 hPa North 4.8 km/h 9.7 km/h 85% 0 mm 448 W/m2
08:20 19.4 °C 16.6 °C 1012.8 hPa North 1.6 km/h 6.4 km/h 84% 0 mm 547 W/m2
08:30 19.9 °C 16.9 °C 1012.8 hPa NNE 8 km/h 12.9 km/h 83% 0 mm 576 W/m2
08:40 20.3 °C 16.7 °C 1012.8 hPa NNE 3.2 km/h 9.7 km/h 80% 0 mm 604 W/m2
08:50 20.8 °C 17.2 °C 1012.8 hPa North 3.2 km/h 8 km/h 80% 0 mm 632 W/m2
09:00 21.9 °C 17.7 °C 1012.8 hPa North 1.6 km/h 8 km/h 77% 0 mm 659 W/m2
09:10 22.8 °C 17.7 °C 1012.8 hPa North 1.6 km/h 6.4 km/h 73% 0 mm 367 W/m2
09:20 23.1 °C 17.8 °C 1012.8 hPa NNE 1.6 km/h 4.8 km/h 72% 0 mm 380 W/m2
09:30 23.3 °C 17.9 °C 1012.4 hPa Calm   3.2 km/h 72% 0 mm 455 W/m2
09:40 23.7 °C 18.3 °C 1012.4 hPa SSW 3.2 km/h 4.8 km/h 72% 0 mm 760 W/m2
09:50 24.7 °C 19.6 °C 1012.4 hPa SW 1.6 km/h 8 km/h 73% 0 mm 783 W/m2
10:00 25.6 °C 19 °C 1012.4 hPa SE 4.8 km/h 8 km/h 67% 0 mm 804 W/m2
10:10 26.3 °C 19.2 °C 1012.4 hPa NE 3.2 km/h 9.7 km/h 65% 0 mm 536 W/m2
10:20 26.5 °C 19.1 °C 1012.4 hPa SSW 3.2 km/h 9.7 km/h 64% 0 mm 623 W/m2
10:30 26.6 °C 19 °C 1012.4 hPa South 3.2 km/h 11.3 km/h 63% 0 mm 511 W/m2
10:40 26.5 °C 18.1 °C 1012.4 hPa SW 11.3 km/h 19.3 km/h 60% 0 mm 593 W/m2
10:50 26.5 °C 17.8 °C 1012.4 hPa WSW 11.3 km/h 19.3 km/h 59% 0 mm 515 W/m2
11:00 26.9 °C 18.5 °C 1012.4 hPa SW 11.3 km/h 19.3 km/h 60% 0 mm 909 W/m2
11:10 27.2 °C 18.2 °C 1012.1 hPa SW 12.9 km/h 20.9 km/h 58% 0 mm 922 W/m2
11:20 27.5 °C 18.5 °C 1012.1 hPa SW 9.7 km/h 20.9 km/h 58% 0 mm 759 W/m2
11:30 27.7 °C 18.9 °C 1012.1 hPa SW 8 km/h 17.7 km/h 59% 0 mm 655 W/m2
11:40 27.4 °C 18.9 °C 1012.1 hPa WSW 4.8 km/h 12.9 km/h 60% 0 mm 543 W/m2
11:50 27.3 °C 18.6 °C 1012.1 hPa SW 8 km/h 12.9 km/h 59% 0 mm 512 W/m2
12:00 27.7 °C 18.7 °C 1012.1 hPa South 1.6 km/h 9.7 km/h 58% 0 mm 965 W/m2
12:10 28 °C 18.9 °C 1011.7 hPa SSE 4.8 km/h 11.3 km/h 58% 0 mm 969 W/m2
12:20 28.5 °C 18.6 °C 1011.7 hPa SSE 1.6 km/h 11.3 km/h 55% 0 mm 570 W/m2
12:30 28.6 °C 19.3 °C 1011.7 hPa SW 4.8 km/h 11.3 km/h 57% 0 mm 362 W/m2
12:40 28.7 °C 19.3 °C 1011.7 hPa West 3.2 km/h 8 km/h 57% 0 mm 973 W/m2
12:50 29.2 °C 19.8 °C 1011.7 hPa SSW 4.8 km/h 14.5 km/h 57% 0 mm 969 W/m2
13:00 29.5 °C 19.2 °C 1011.7 hPa SW 3.2 km/h 12.9 km/h 54% 0 mm 616 W/m2
13:10 29.6 °C 19 °C 1011.7 hPa SSW 3.2 km/h 12.9 km/h 53% 0 mm 555 W/m2
13:20 29.3 °C 19.1 °C 1011.7 hPa South 4.8 km/h 9.7 km/h 54% 0 mm 957 W/m2
13:30 29.6 °C 19 °C 1011.4 hPa SSE 3.2 km/h 9.7 km/h 53% 0 mm 949 W/m2
13:40 29.8 °C 19.2 °C 1011.4 hPa SSW 1.6 km/h 9.7 km/h 53% 0 mm 409 W/m2
13:50 29.7 °C 19.1 °C 1011.4 hPa East 1.6 km/h 9.7 km/h 53% 0 mm 405 W/m2
14:00 29.5 °C 18.6 °C 1011.4 hPa South 1.6 km/h 11.3 km/h 52% 0 mm 239 W/m2
14:10 29.3 °C 18.7 °C 1011.4 hPa Calm   4.8 km/h 53% 0 mm 220 W/m2
14:20 29.2 °C 18.9 °C 1011.4 hPa Calm   3.2 km/h 54% 0 mm 592 W/m2
14:30 29.7 °C 20.3 °C 1011.1 hPa NNW 3.2 km/h 8 km/h 57% 0 mm 872 W/m2
14:40 29.7 °C 20.3 °C 1011.1 hPa North 3.2 km/h 9.7 km/h 57% 0 mm 326 W/m2
14:50 29.9 °C 19.6 °C 1011.4 hPa North 3.2 km/h 9.7 km/h 54% 0 mm 836 W/m2
15:00 29.8 °C 19.2 °C 1011.4 hPa North 1.6 km/h 9.7 km/h 53% 0 mm 143 W/m2
15:10 29.5 °C 19.5 °C 1011.4 hPa North 3.2 km/h 6.4 km/h 55% 0 mm 107 W/m2
15:20 29 °C 19.1 °C 1011.7 hPa NNW 4.8 km/h 14.5 km/h 55% 0 mm 100 W/m2
15:30 28.3 °C 19.5 °C 1011.7 hPa NNW 8 km/h 16.1 km/h 59% 0 mm 151 W/m2
15:40 27.4 °C 19.5 °C 1012.1 hPa SW 8 km/h 20.9 km/h 62% 0 mm 347 W/m2
15:50 27.2 °C 19.8 °C 1012.1 hPa SW 4.8 km/h 12.9 km/h 64% 0 mm 635 W/m2
16:00 27.4 °C 20.2 °C 1012.1 hPa SW 8 km/h 12.9 km/h 65% 0 mm 675 W/m2
16:10 27.4 °C 20.2 °C 1012.1 hPa SW 9.7 km/h 19.3 km/h 65% 0 mm 363 W/m2
16:20 26.9 °C 20.3 °C 1011.7 hPa SW 9.7 km/h 12.9 km/h 67% 0 mm 491 W/m2
16:30 27 °C 21.5 °C 1011.7 hPa SSW 4.8 km/h 11.3 km/h 72% 0 mm 593 W/m2
16:40 26.9 °C 19.8 °C 1012.1 hPa SW 4.8 km/h 16.1 km/h 65% 0 mm 270 W/m2
16:50 26.5 °C 19.9 °C 1011.7 hPa WSW 8 km/h 12.9 km/h 67% 0 mm 198 W/m2
17:00 26.4 °C 19.8 °C 1012.1 hPa WSW 9.7 km/h 12.9 km/h 67% 0 mm 182 W/m2
17:10 26.3 °C 19.2 °C 1012.1 hPa WSW 8 km/h 17.7 km/h 65% 0 mm 151 W/m2
17:20 26.1 °C 19 °C 1012.1 hPa WSW 1.6 km/h 12.9 km/h 65% 0 mm 130 W/m2
17:30 26 °C 19.4 °C 1012.1 hPa WSW 1.6 km/h 8 km/h 67% 0 mm 113 W/m2
17:40 25.9 °C 19.3 °C 1012.1 hPa WSW 3.2 km/h 8 km/h 67% 0 mm 110 W/m2
17:50 25.7 °C 19.1 °C 1012.1 hPa WNW 1.6 km/h 6.4 km/h 67% 0 mm 122 W/m2
Knjazevac, Serbia
Compliments of Weather Underground - 2 mb